Time;durP1;ratioP1;P1;durP2;ratioP2;P2;SDS_P1;SDS_P2;PMS_P1;PMS_P2;Temp;Humidity;BMP_temperature;BMP_pressure;BME280_temperature;BME280_humidity;BME280_pressure;Samples;Min_cycle;Max_cycle;Signal;HPM_P1;HPM_P2
2020/12/23 00:00:10;;;;;;;21.30;16.88;;;11.60;94.50;;;;;;5033675;28;20081;-70
2020/12/23 00:02:36;;;;;;;17.90;15.65;;;11.50;94.50;;;;;;5034391;28;20060;-74
2020/12/23 00:05:06;;;;;;;25.75;15.77;;;11.60;94.50;;;;;;5033233;28;20394;-70
2020/12/23 00:07:31;;;;;;;20.27;15.77;;;11.50;94.50;;;;;;5034484;28;20021;-71
2020/12/23 00:09:57;;;;;;;24.10;17.55;;;11.50;94.50;;;;;;5032994;28;20474;-72
2020/12/23 00:12:22;;;;;;;23.70;17.80;;;11.60;94.50;;;;;;5034080;28;20466;-71
2020/12/23 00:14:48;;;;;;;22.13;17.77;;;11.50;94.50;;;;;;5016523;28;20025;-68
2020/12/23 00:17:17;;;;;;;22.75;18.02;;;11.50;94.50;;;;;;5033215;28;20029;-72
2020/12/23 00:19:43;;;;;;;22.83;18.33;;;11.60;94.50;;;;;;5034105;28;20056;-71
2020/12/23 00:22:08;;;;;;;22.63;18.60;;;11.50;94.50;;;;;;5033675;28;20386;-71
2020/12/23 00:24:34;;;;;;;25.02;18.35;;;11.50;94.50;;;;;;5015453;28;20033;-71
2020/12/23 00:26:59;;;;;;;23.85;18.23;;;11.60;94.50;;;;;;5015419;28;20029;-72
2020/12/23 00:29:25;;;;;;;23.77;18.83;;;11.50;94.50;;;;;;5015744;28;20022;-70
2020/12/23 00:31:54;;;;;;;19.75;17.45;;;11.60;94.60;;;;;;5015372;28;20446;-70
2020/12/23 00:34:20;;;;;;;28.70;20.38;;;11.60;94.60;;;;;;5033383;28;20029;-70
2020/12/23 00:36:56;;;;;;;24.08;19.42;;;11.60;94.60;;;;;;5015756;28;20081;-71
2020/12/23 00:39:22;;;;;;;22.55;19.30;;;11.50;94.50;;;;;;5032500;28;20033;-71
2020/12/23 00:41:48;;;;;;;29.88;20.33;;;11.50;94.60;;;;;;5033668;28;20026;-71
2020/12/23 00:44:15;;;;;;;25.90;19.73;;;11.60;94.60;;;;;;5033395;28;20479;-71
2020/12/23 00:46:40;;;;;;;24.73;19.88;;;11.50;94.60;;;;;;5032809;28;20021;-70
2020/12/23 00:49:07;;;;;;;28.80;21.85;;;11.60;94.60;;;;;;5033192;28;20080;-71
2020/12/23 00:51:33;;;;;;;28.50;21.05;;;11.60;94.70;;;;;;5031584;28;20017;-74
2020/12/23 00:53:58;;;;;;;29.15;21.65;;;11.60;94.70;;;;;;5032532;28;20041;-70
2020/12/23 00:56:24;;;;;;;34.92;23.15;;;11.50;94.70;;;;;;5033451;28;20022;-71
2020/12/23 00:58:49;;;;;;;31.90;22.23;;;11.60;94.70;;;;;;5032922;28;20120;-71
2020/12/23 01:01:15;;;;;;;31.75;22.65;;;11.60;94.70;;;;;;5031894;28;20029;-73
2020/12/23 01:03:40;;;;;;;37.05;23.45;;;11.50;94.60;;;;;;5033190;28;20105;-71
2020/12/23 01:06:10;;;;;;;30.20;21.17;;;11.50;94.70;;;;;;5014655;28;20044;-71
2020/12/23 01:08:36;;;;;;;34.30;22.27;;;11.50;94.90;;;;;;5032951;28;20063;-71
2020/12/23 01:11:05;;;;;;;34.00;21.67;;;11.50;94.70;;;;;;5014791;28;20064;-71
2020/12/23 01:13:32;;;;;;;34.60;22.58;;;11.50;94.70;;;;;;5032756;28;20676;-72
2020/12/23 01:15:57;;;;;;;35.47;22.63;;;11.60;94.70;;;;;;5032551;28;20114;-78
2020/12/23 01:18:23;;;;;;;30.90;23.20;;;11.50;94.70;;;;;;5032860;28;20546;-71
2020/12/23 01:20:49;;;;;;;33.78;23.70;;;11.50;94.70;;;;;;5014476;28;20072;-72
2020/12/23 01:23:15;;;;;;;31.55;22.85;;;11.50;94.70;;;;;;5032677;28;20052;-71
2020/12/23 01:25:40;;;;;;;40.90;23.50;;;11.50;94.70;;;;;;5015241;28;20107;-71
2020/12/23 01:28:06;;;;;;;36.60;24.40;;;11.50;94.70;;;;;;5031737;28;20052;-71
2020/12/23 01:30:31;;;;;;;39.90;24.30;;;11.50;94.70;;;;;;5032617;28;20025;-71
2020/12/23 01:32:57;;;;;;;38.10;23.80;;;11.50;94.80;;;;;;5014759;28;20025;-72
2020/12/23 01:35:22;;;;;;;41.25;24.08;;;11.50;94.80;;;;;;5031624;28;20030;-71
2020/12/23 01:37:48;;;;;;;34.00;24.92;;;11.50;94.80;;;;;;5032471;28;20107;-72
2020/12/23 01:40:13;;;;;;;37.00;25.10;;;11.50;94.80;;;;;;5032231;28;20056;-72
2020/12/23 01:42:39;;;;;;;38.25;24.70;;;11.50;94.80;;;;;;5031590;28;20026;-70
2020/12/23 01:45:05;;;;;;;40.80;25.70;;;11.50;94.80;;;;;;5014212;28;20054;-70
2020/12/23 01:47:32;;;;;;;42.60;25.80;;;11.50;94.80;;;;;;5029878;28;20029;-71
2020/12/23 01:49:58;;;;;;;42.25;25.00;;;11.50;94.80;;;;;;5011897;28;20028;-78
2020/12/23 01:52:24;;;;;;;41.63;25.20;;;11.50;95.10;;;;;;5032482;28;20096;-72
2020/12/23 01:54:51;;;;;;;36.00;23.80;;;11.50;94.80;;;;;;5015326;28;20029;-71
2020/12/23 01:57:17;;;;;;;41.25;24.35;;;11.50;94.80;;;;;;5032169;28;20032;-71
2020/12/23 01:59:46;;;;;;;42.72;25.73;;;11.50;94.80;;;;;;5032639;28;20042;-71
2020/12/23 02:02:31;;;;;;;42.10;25.83;;;11.50;94.80;;;;;;5032272;28;20021;-71
2020/12/23 02:04:58;;;;;;;45.13;25.55;;;11.50;94.90;;;;;;5032349;28;20025;-71
2020/12/23 02:07:25;;;;;;;35.45;24.40;;;11.50;94.90;;;;;;5032233;28;20022;-71
2020/12/23 02:09:53;;;;;;;32.88;24.30;;;11.60;94.90;;;;;;5031863;28;20481;-70
2020/12/23 02:12:19;;;;;;;38.40;24.05;;;11.60;94.90;;;;;;5009296;28;20520;-72
2020/12/23 02:14:45;;;;;;;37.67;24.45;;;11.60;94.90;;;;;;4995158;28;20080;-71
2020/12/23 02:17:11;;;;;;;33.75;24.33;;;11.60;94.90;;;;;;5011863;28;20048;-71
2020/12/23 02:19:49;;;;;;;40.78;26.10;;;11.50;94.90;;;;;;5012708;28;20387;-71
2020/12/23 02:22:20;;;;;;;40.25;24.33;;;11.50;94.90;;;;;;5017296;28;20108;-71
2020/12/23 02:24:47;;;;;;;47.15;26.40;;;11.50;94.90;;;;;;5031750;28;20033;-73
2020/12/23 02:27:14;;;;;;;41.78;25.95;;;11.50;95.00;;;;;;5012817;28;20017;-71
2020/12/23 02:29:44;;;;;;;43.22;26.15;;;11.50;95.00;;;;;;5030372;28;20068;-71
2020/12/23 02:32:10;;;;;;;46.63;26.88;;;11.50;95.30;;;;;;5029477;28;20078;-70
2020/12/23 02:34:36;;;;;;;59.92;33.33;;;11.50;95.00;;;;;;5030324;28;20025;-72
2020/12/23 02:37:03;;;;;;;75.97;40.28;;;11.50;95.00;;;;;;5012260;28;20018;-70
2020/12/23 02:39:29;;;;;;;77.43;43.00;;;11.50;95.00;;;;;;5029535;28;20509;-71
2020/12/23 02:41:56;;;;;;;56.83;31.30;;;11.50;95.00;;;;;;5030373;28;20088;-71
2020/12/23 02:44:22;;;;;;;53.15;27.55;;;11.50;95.00;;;;;;5014558;28;20042;-70
2020/12/23 02:46:58;;;;;;;51.25;27.42;;;11.50;95.00;;;;;;5015516;28;20024;-71
2020/12/23 02:49:25;;;;;;;47.13;26.73;;;11.50;95.00;;;;;;5017663;28;20038;-71
2020/12/23 02:51:51;;;;;;;56.70;27.30;;;11.50;95.00;;;;;;5019370;28;20032;-71
2020/12/23 02:54:17;;;;;;;54.72;28.27;;;11.50;95.00;;;;;;5040622;28;20034;-77
2020/12/23 02:56:42;;;;;;;49.10;25.90;;;11.50;95.00;;;;;;5033173;28;20489;-72
2020/12/23 02:59:08;;;;;;;52.50;27.52;;;11.50;95.00;;;;;;5055210;28;20495;-71
2020/12/23 03:01:35;;;;;;;52.45;27.60;;;11.50;95.00;;;;;;5035221;28;20500;-71
2020/12/23 03:04:01;;;;;;;60.80;27.20;;;11.50;95.00;;;;;;5033218;28;20052;-71
2020/12/23 03:06:27;;;;;;;56.20;28.02;;;11.50;95.00;;;;;;5031471;28;20053;-73
2020/12/23 03:08:52;;;;;;;65.47;28.17;;;11.50;95.00;;;;;;5015635;28;20029;-71
2020/12/23 03:11:18;;;;;;;60.47;26.70;;;11.60;95.00;;;;;;5007592;28;20068;-72
2020/12/23 03:13:44;;;;;;;63.20;26.63;;;11.50;95.00;;;;;;5034762;28;20100;-72
2020/12/23 03:16:09;;;;;;;86.97;29.52;;;11.50;95.00;;;;;;5035324;28;20382;-71
2020/12/23 03:18:35;;;;;;;63.60;27.25;;;11.50;95.00;;;;;;5035153;28;20043;-73
2020/12/23 03:21:00;;;;;;;62.67;28.70;;;11.60;95.10;;;;;;5034491;28;20021;-71
2020/12/23 03:23:26;;;;;;;74.53;27.92;;;11.50;95.10;;;;;;5035124;28;20040;-71
2020/12/23 03:25:51;;;;;;;64.57;27.73;;;11.60;95.10;;;;;;5035138;28;20040;-71
2020/12/23 03:28:17;;;;;;;59.72;29.63;;;11.50;95.10;;;;;;5034458;28;20032;-71
2020/12/23 03:30:42;;;;;;;66.88;29.42;;;11.50;95.10;;;;;;5035093;28;20022;-71
2020/12/23 03:33:08;;;;;;;60.35;28.90;;;11.60;95.10;;;;;;5034788;28;20466;-70
2020/12/23 03:35:33;;;;;;;86.47;30.13;;;11.60;95.10;;;;;;5034484;28;20026;-72
2020/12/23 03:37:59;;;;;;;62.45;28.83;;;11.50;95.10;;;;;;5034673;28;20017;-72
2020/12/23 03:40:24;;;;;;;55.42;27.67;;;11.50;95.10;;;;;;5035099;28;20026;-71
2020/12/23 03:42:50;;;;;;;64.78;28.92;;;11.60;95.20;;;;;;5034276;28;20021;-71
2020/12/23 03:45:15;;;;;;;69.50;30.40;;;11.60;95.20;;;;;;5034435;28;20568;-71
2020/12/23 03:47:41;;;;;;;65.55;29.33;;;11.60;95.20;;;;;;5035040;28;20032;-71
2020/12/23 03:50:06;;;;;;;86.53;30.00;;;11.60;95.20;;;;;;5033914;28;20052;-71
2020/12/23 03:52:32;;;;;;;90.55;29.13;;;11.60;95.20;;;;;;5034738;28;20183;-71
2020/12/23 03:54:57;;;;;;;80.50;30.25;;;11.60;95.20;;;;;;5034093;28;20018;-72
2020/12/23 03:57:23;;;;;;;98.60;29.30;;;11.60;95.20;;;;;;5034124;28;20026;-72
2020/12/23 03:59:48;;;;;;;76.25;29.63;;;11.60;95.20;;;;;;5034414;28;20387;-73
2020/12/23 04:02:14;;;;;;;62.92;31.13;;;11.50;95.20;;;;;;5033614;28;20021;-75
2020/12/23 04:04:40;;;;;;;77.22;29.33;;;11.60;95.20;;;;;;5034676;28;20036;-71
2020/12/23 04:07:05;;;;;;;86.57;30.20;;;11.60;95.20;;;;;;5034223;28;20026;-71
2020/12/23 04:09:31;;;;;;;86.72;30.35;;;11.60;95.20;;;;;;5034008;28;20073;-71
2020/12/23 04:11:56;;;;;;;75.00;31.98;;;11.60;95.20;;;;;;5034023;28;20032;-71
2020/12/23 04:14:22;;;;;;;80.55;31.67;;;11.60;95.20;;;;;;5034384;28;20026;-72
2020/12/23 04:16:47;;;;;;;90.13;30.00;;;11.60;95.20;;;;;;5033536;28;20366;-71
2020/12/23 04:19:13;;;;;;;67.93;29.23;;;11.60;95.20;;;;;;5033914;28;20385;-72
2020/12/23 04:21:38;;;;;;;75.07;29.33;;;11.60;95.20;;;;;;5034254;28;20056;-71
2020/12/23 04:24:04;;;;;;;78.47;29.33;;;11.60;95.20;;;;;;5033241;28;20029;-71
2020/12/23 04:26:29;;;;;;;58.28;30.00;;;11.60;95.20;;;;;;5034117;28;20533;-71
2020/12/23 04:28:55;;;;;;;69.57;30.17;;;11.60;95.20;;;;;;5033741;28;20048;-70
2020/12/23 04:31:20;;;;;;;73.13;28.95;;;11.60;95.20;;;;;;5033219;28;20014;-70
2020/12/23 04:33:46;;;;;;;70.53;29.90;;;11.70;95.30;;;;;;5033695;28;20436;-70
2020/12/23 04:36:11;;;;;;;72.60;29.80;;;11.70;95.30;;;;;;5033715;28;20022;-71
2020/12/23 04:38:37;;;;;;;59.72;29.45;;;11.70;95.20;;;;;;5032983;28;20040;-70
2020/12/23 04:41:02;;;;;;;48.83;29.80;;;11.70;95.30;;;;;;5033684;28;20022;-71
2020/12/23 04:43:28;;;;;;;56.55;29.23;;;11.70;95.30;;;;;;5033707;28;20422;-71
2020/12/23 04:45:54;;;;;;;69.22;29.77;;;11.70;95.30;;;;;;5032488;28;20088;-72
2020/12/23 04:48:26;;;;;;;58.33;27.55;;;11.70;95.30;;;;;;5033629;28;20386;-71
2020/12/23 04:50:55;;;;;;;60.97;29.95;;;11.70;95.30;;;;;;5033345;28;20025;-70
2020/12/23 04:53:24;;;;;;;51.38;29.48;;;11.70;95.30;;;;;;5032915;28;20029;-72
2020/12/23 04:55:50;;;;;;;47.90;28.50;;;11.70;95.30;;;;;;5033762;28;20018;-71
2020/12/23 04:58:16;;;;;;;50.70;26.73;;;11.70;95.30;;;;;;5032734;28;20091;-71
2020/12/23 05:00:41;;;;;;;49.40;25.98;;;11.70;95.30;;;;;;5033349;28;20048;-73
2020/12/23 05:03:07;;;;;;;48.80;27.77;;;11.70;95.30;;;;;;5015167;28;20029;-71
2020/12/23 05:05:32;;;;;;;44.97;25.88;;;11.80;95.40;;;;;;5032873;28;20079;-71
2020/12/23 05:07:58;;;;;;;36.50;23.92;;;11.80;95.40;;;;;;5033081;28;20071;-70
2020/12/23 05:10:31;;;;;;;45.03;24.58;;;11.80;95.40;;;;;;5014845;28;20482;-70
2020/12/23 05:12:56;;;;;;;36.35;25.33;;;11.80;95.40;;;;;;5014680;28;20017;-70
2020/12/23 05:15:23;;;;;;;40.75;24.33;;;11.80;95.30;;;;;;5015502;28;20084;-70
2020/12/23 05:17:50;;;;;;;40.25;23.13;;;11.80;95.30;;;;;;5032998;28;20129;-71
2020/12/23 05:20:15;;;;;;;40.42;23.45;;;11.80;95.30;;;;;;5032203;28;20037;-71
2020/12/23 05:22:46;;;;;;;46.08;24.02;;;11.90;95.30;;;;;;5033156;28;20083;-72
2020/12/23 05:25:13;;;;;;;38.70;21.88;;;11.90;95.30;;;;;;5033022;28;20029;-79
2020/12/23 05:27:42;;;;;;;41.60;23.40;;;11.90;95.30;;;;;;5032317;28;20441;-70
2020/12/23 05:30:09;;;;;;;36.17;21.98;;;11.90;95.30;;;;;;5033090;28;20049;-70
2020/12/23 05:32:36;;;;;;;43.47;22.15;;;11.90;95.30;;;;;;5032821;28;20026;-72
2020/12/23 05:35:03;;;;;;;36.75;20.60;;;11.90;95.40;;;;;;5014221;28;20484;-71
2020/12/23 05:37:28;;;;;;;30.40;20.05;;;11.90;95.40;;;;;;5033196;28;20402;-71
2020/12/23 05:39:54;;;;;;;31.85;19.45;;;11.90;95.40;;;;;;5032513;28;20025;-71
2020/12/23 05:42:20;;;;;;;30.27;18.67;;;11.90;95.40;;;;;;5032192;28;20025;-71
2020/12/23 05:44:56;;;;;;;27.15;19.50;;;11.90;95.40;;;;;;5032897;28;20036;-71
2020/12/23 05:47:24;;;;;;;23.48;18.45;;;11.90;95.40;;;;;;5032905;28;20053;-70
2020/12/23 05:49:51;;;;;;;23.30;17.17;;;12.00;95.40;;;;;;5032166;28;20037;-71
2020/12/23 05:52:22;;;;;;;24.90;16.48;;;11.90;95.40;;;;;;5014933;28;20045;-70
2020/12/23 05:54:52;;;;;;;25.63;16.42;;;11.90;95.40;;;;;;5032202;28;20053;-70
2020/12/23 05:57:21;;;;;;;19.48;15.75;;;12.00;95.40;;;;;;5032916;28;20060;-71
2020/12/23 05:59:47;;;;;;;22.55;14.98;;;12.00;95.50;;;;;;5014787;28;20030;-71
2020/12/23 06:02:14;;;;;;;17.90;13.65;;;12.00;95.50;;;;;;5031671;28;20024;-71
2020/12/23 06:04:44;;;;;;;16.13;13.45;;;12.00;95.50;;;;;;5032756;28;20022;-71
2020/12/23 06:07:12;;;;;;;18.35;13.13;;;11.90;95.50;;;;;;5032322;28;20053;-77
2020/12/23 06:09:48;;;;;;;14.18;12.48;;;11.90;95.60;;;;;;5014348;28;20028;-71
2020/12/23 06:12:18;;;;;;;14.45;12.57;;;12.00;95.60;;;;;;5014689;28;20018;-71
2020/12/23 06:14:51;;;;;;;16.80;12.23;;;12.00;95.60;;;;;;5032521;28;20034;-71
2020/12/23 06:17:19;;;;;;;15.13;12.77;;;12.00;95.70;;;;;;5031967;28;20032;-71
2020/12/23 06:19:48;;;;;;;14.32;12.82;;;12.00;95.70;;;;;;5032411;28;20032;-71
2020/12/23 06:22:13;;;;;;;12.93;11.63;;;12.00;95.70;;;;;;5036086;28;20049;-71
2020/12/23 06:24:39;;;;;;;16.13;12.30;;;12.10;95.70;;;;;;5035768;28;20099;-72
2020/12/23 06:27:06;;;;;;;16.02;12.23;;;12.10;95.70;;;;;;5036119;28;20537;-72
2020/12/23 06:29:35;;;;;;;12.85;11.55;;;12.10;95.70;;;;;;5036397;28;20017;-72
2020/12/23 06:32:03;;;;;;;13.10;11.70;;;12.10;95.70;;;;;;5035329;28;20026;-72
2020/12/23 06:34:34;;;;;;;12.60;11.10;;;12.10;95.70;;;;;;5036445;28;20036;-71
2020/12/23 06:37:00;;;;;;;11.85;10.35;;;12.10;95.70;;;;;;5035386;28;20090;-71
2020/12/23 06:39:31;;;;;;;12.10;9.88;;;12.10;95.70;;;;;;5035972;28;20112;-71
2020/12/23 06:42:00;;;;;;;9.88;8.88;;;12.10;95.70;;;;;;5035626;28;20167;-70
2020/12/23 06:44:46;;;;;;;11.57;10.18;;;12.10;95.70;;;;;;5035311;28;20025;-71
2020/12/23 06:47:19;;;;;;;12.50;9.18;;;12.10;95.70;;;;;;5018204;28;20056;-70
2020/12/23 06:49:58;;;;;;;10.38;9.38;;;12.20;95.70;;;;;;5035827;28;20034;-76
2020/12/23 06:52:24;;;;;;;14.00;10.10;;;12.20;95.70;;;;;;5037642;28;20029;-76
2020/12/23 06:54:50;;;;;;;10.95;9.95;;;12.20;95.70;;;;;;5038891;28;20385;-70
2020/12/23 06:57:37;;;;;;;10.90;9.52;;;12.20;95.80;;;;;;5023789;28;20036;-70
2020/12/23 07:00:26;;;;;;;11.45;10.00;;;12.20;95.80;;;;;;5054837;28;20029;-69
2020/12/23 07:02:59;;;;;;;11.07;9.93;;;12.20;95.70;;;;;;5042132;28;20030;-70
2020/12/23 07:05:24;;;;;;;12.32;9.85;;;12.30;95.80;;;;;;5034935;28;20053;-70
2020/12/23 07:07:55;;;;;;;11.55;10.35;;;12.20;95.80;;;;;;5017765;28;20513;-70
2020/12/23 07:10:25;;;;;;;12.05;10.65;;;12.30;95.80;;;;;;5035453;28;20053;-71
2020/12/23 07:12:59;;;;;;;11.80;10.60;;;12.30;95.80;;;;;;5034739;28;20459;-70
2020/12/23 07:15:27;;;;;;;11.45;10.35;;;12.30;95.90;;;;;;5035386;28;20029;-71
2020/12/23 07:17:57;;;;;;;11.52;10.43;;;12.40;95.90;;;;;;5035103;28;20374;-70
2020/12/23 07:20:24;;;;;;;12.23;10.93;;;12.40;95.90;;;;;;5035201;28;20374;-70
2020/12/23 07:22:51;;;;;;;11.90;10.75;;;12.40;96.00;;;;;;5017349;28;20340;-70
2020/12/23 07:25:24;;;;;;;12.63;11.27;;;12.40;96.10;;;;;;5035915;28;20040;-71
2020/12/23 07:27:58;;;;;;;11.77;10.57;;;12.40;96.10;;;;;;5041166;28;20048;-71
2020/12/23 07:30:25;;;;;;;10.50;9.48;;;12.40;96.10;;;;;;5041747;28;20029;-71
2020/12/23 07:33:16;;;;;;;10.30;9.30;;;12.40;96.10;;;;;;5035197;28;20041;-71
2020/12/23 07:35:45;;;;;;;9.82;8.63;;;12.50;96.20;;;;;;5034795;28;20490;-71
2020/12/23 07:38:11;;;;;;;11.50;8.35;;;12.50;96.20;;;;;;5045233;28;20021;-70
2020/12/23 07:40:37;;;;;;;8.90;8.00;;;12.60;96.20;;;;;;5052769;28;20021;-70
2020/12/23 07:43:03;;;;;;;9.85;8.63;;;12.60;96.30;;;;;;5034539;28;20044;-71
2020/12/23 07:45:30;;;;;;;9.55;7.05;;;12.50;96.40;;;;;;5034537;28;20044;-70
2020/12/23 07:48:00;;;;;;;8.77;7.88;;;12.60;96.40;;;;;;5034169;28;20028;-70
2020/12/23 07:50:28;;;;;;;8.98;7.65;;;12.60;96.50;;;;;;5034884;28;20057;-70
2020/12/23 07:52:54;;;;;;;7.82;7.03;;;12.60;96.50;;;;;;5034561;28;20017;-70
2020/12/23 07:55:21;;;;;;;7.97;6.63;;;12.60;96.50;;;;;;5033806;28;20092;-70
2020/12/23 07:57:51;;;;;;;8.70;6.88;;;12.60;96.50;;;;;;5034048;28;20018;-72
2020/12/23 08:00:19;;;;;;;7.07;6.25;;;12.70;96.60;;;;;;5034189;28;20056;-70
2020/12/23 08:02:45;;;;;;;7.20;6.50;;;12.70;96.60;;;;;;4996427;28;20105;-72
2020/12/23 08:05:12;;;;;;;9.52;6.82;;;12.70;96.60;;;;;;5027451;28;20029;-72
2020/12/23 08:07:39;;;;;;;7.22;6.53;;;12.70;96.60;;;;;;5034513;28;20022;-73
2020/12/23 08:10:07;;;;;;;7.63;6.82;;;12.70;96.60;;;;;;5033499;28;20482;-75
2020/12/23 08:12:33;;;;;;;6.53;5.93;;;12.70;96.70;;;;;;5011549;28;20048;-70
2020/12/23 08:14:59;;;;;;;7.63;6.88;;;12.70;96.70;;;;;;5013985;28;20022;-67
2020/12/23 08:17:24;;;;;;;7.13;6.45;;;12.70;96.70;;;;;;5015231;28;20075;-72
2020/12/23 08:20:08;;;;;;;7.60;6.95;;;12.80;96.70;;;;;;5033975;28;20537;-78
2020/12/23 08:22:34;;;;;;;31.52;8.48;;;12.80;96.80;;;;;;5015842;28;20025;-75
2020/12/23 08:25:01;;;;;;;7.90;7.10;;;12.80;96.80;;;;;;5032976;28;20032;-75
2020/12/23 08:27:27;;;;;;;7.95;7.22;;;12.80;96.80;;;;;;5033501;28;20029;-73
2020/12/23 08:29:53;;;;;;;134.73;12.70;;;12.90;96.70;;;;;;5032748;28;20474;-73
2020/12/23 08:32:24;;;;;;;9.68;8.77;;;12.90;96.70;;;;;;5033497;28;20014;-74
2020/12/23 08:34:53;;;;;;;9.32;8.43;;;13.00;96.60;;;;;;5033468;28;20386;-72
2020/12/23 08:37:22;;;;;;;20.45;10.68;;;13.00;96.50;;;;;;5032964;28;20049;-75
2020/12/23 08:39:58;;;;;;;9.18;7.40;;;13.00;96.50;;;;;;5033016;28;20037;-74
2020/12/23 08:42:25;;;;;;;7.63;6.95;;;13.00;96.40;;;;;;5032479;28;20064;-70
2020/12/23 08:44:55;;;;;;;6.95;6.25;;;13.00;96.40;;;;;;5032828;28;20025;-71
2020/12/23 08:47:28;;;;;;;116.10;15.05;;;13.10;96.40;;;;;;5033224;28;20045;-74
2020/12/23 08:49:58;;;;;;;7.60;6.90;;;13.20;96.30;;;;;;5015302;28;20030;-73
2020/12/23 08:52:25;;;;;;;6.93;5.97;;;13.20;96.30;;;;;;5032200;28;20045;-71
2020/12/23 08:54:51;;;;;;;6.18;5.57;;;13.20;96.20;;;;;;5032170;28;20018;-71
2020/12/23 08:57:23;;;;;;;7.10;5.45;;;13.20;96.10;;;;;;5031340;28;20025;-68
2020/12/23 08:59:49;;;;;;;13.73;6.70;;;13.30;96.10;;;;;;5032885;28;20034;-75
2020/12/23 09:02:18;;;;;;;4.78;4.35;;;13.30;96.00;;;;;;5014500;28;20029;-79
2020/12/23 09:04:44;;;;;;;5.50;4.88;;;13.30;96.00;;;;;;5014579;28;20033;-75
2020/12/23 09:07:10;;;;;;;7.45;6.85;;;13.30;96.00;;;;;;5032844;28;20017;-77
2020/12/23 09:09:37;;;;;;;666.33;41.70;;;13.30;95.90;;;;;;5015692;28;20066;-75
2020/12/23 09:12:04;;;;;;;5.85;5.07;;;13.30;96.00;;;;;;5030974;28;20037;-72
2020/12/23 09:14:34;;;;;;;4.68;4.13;;;13.40;96.00;;;;;;5032798;28;20501;-71
2020/12/23 09:17:07;;;;;;;4.88;4.10;;;13.40;95.90;;;;;;5032146;28;20026;-71
2020/12/23 09:19:51;;;;;;;4.70;4.30;;;13.40;95.80;;;;;;5032096;28;20031;-71
2020/12/23 09:22:29;;;;;;;7.43;3.90;;;13.40;95.80;;;;;;5032396;28;20104;-71
2020/12/23 09:25:21;;;;;;;3.58;3.28;;;13.40;95.70;;;;;;5014464;28;20075;-71
2020/12/23 09:27:48;;;;;;;;;;;13.50;95.70;;;;;;5012727;28;20056;-73
2020/12/23 09:30:28;;;;;;;15.60;6.00;;;13.40;95.60;;;;;;4999318;28;19909;-74
2020/12/23 09:32:53;;;;;;;4.28;3.88;;;13.50;95.60;;;;;;5031464;28;20029;-71
2020/12/23 09:35:23;;;;;;;3.72;3.42;;;13.50;95.60;;;;;;5031898;28;20091;-75
2020/12/23 09:38:00;;;;;;;4.07;3.67;;;13.50;95.60;;;;;;5033108;28;20087;-76
2020/12/23 09:40:26;;;;;;;4.53;3.13;;;13.60;95.50;;;;;;5014327;28;20437;-76
2020/12/23 09:42:52;;;;;;;4.07;3.17;;;13.60;95.40;;;;;;5032236;28;20021;-75
2020/12/23 09:45:17;;;;;;;2.85;2.65;;;13.60;95.40;;;;;;5014569;28;20021;-75
2020/12/23 09:47:43;;;;;;;3.35;2.75;;;13.60;95.40;;;;;;5031564;28;20040;-74
2020/12/23 09:50:09;;;;;;;3.20;2.65;;;13.60;95.40;;;;;;5031983;28;20029;-74
2020/12/23 09:52:35;;;;;;;2.80;2.50;;;13.60;95.40;;;;;;5031120;28;20031;-73
2020/12/23 09:55:00;;;;;;;2.78;2.47;;;13.50;95.30;;;;;;5031416;28;20493;-73
2020/12/23 09:57:26;;;;;;;4.30;2.85;;;13.60;95.30;;;;;;5036044;28;20486;-74
2020/12/23 09:59:51;;;;;;;4.38;2.90;;;13.60;95.30;;;;;;5036185;28;20041;-75
2020/12/23 10:02:17;;;;;;;7.05;3.20;;;13.60;95.30;;;;;;5035747;28;20029;-74
2020/12/23 10:04:42;;;;;;;3.15;2.70;;;13.60;95.30;;;;;;5036140;28;20025;-75
2020/12/23 10:07:09;;;;;;;2.90;2.60;;;13.60;95.30;;;;;;5015537;28;20372;-74
2020/12/23 10:09:35;;;;;;;3.17;2.67;;;13.60;95.30;;;;;;5015961;28;20026;-74
2020/12/23 10:12:01;;;;;;;3.88;2.83;;;13.60;95.30;;;;;;5021233;28;20108;-74
2020/12/23 10:14:26;;;;;;;6.20;3.45;;;13.60;95.30;;;;;;5036049;28;20064;-74
2020/12/23 10:16:52;;;;;;;4.43;2.95;;;13.60;95.20;;;;;;5034705;28;20021;-74
2020/12/23 10:19:17;;;;;;;5.43;3.35;;;13.60;95.30;;;;;;5035434;28;20164;-74
2020/12/23 10:21:43;;;;;;;3.55;3.00;;;13.60;95.30;;;;;;5035878;28;20141;-74
2020/12/23 10:24:09;;;;;;;3.15;2.85;;;13.60;95.30;;;;;;5017419;28;20029;-74
2020/12/23 10:26:34;;;;;;;3.10;2.80;;;13.60;95.30;;;;;;5035974;28;20021;-74
2020/12/23 10:28:59;;;;;;;4.10;3.22;;;13.60;95.30;;;;;;5035010;28;20112;-74
2020/12/23 10:31:25;;;;;;;3.55;3.25;;;13.60;95.20;;;;;;5033311;28;20022;-78
2020/12/23 10:33:51;;;;;;;3.80;3.40;;;13.70;95.20;;;;;;5017970;28;20026;-73
2020/12/23 10:36:16;;;;;;;4.70;3.72;;;13.70;95.20;;;;;;5017632;28;20482;-76
2020/12/23 10:38:43;;;;;;;3.55;3.25;;;13.70;95.10;;;;;;5000132;28;20029;-76
2020/12/23 10:41:09;;;;;;;3.53;3.22;;;13.80;95.10;;;;;;4997939;28;20021;-76
2020/12/23 10:43:35;;;;;;;3.45;2.97;;;13.80;95.10;;;;;;4997801;28;20018;-75
2020/12/23 10:46:00;;;;;;;3.83;3.42;;;13.80;95.00;;;;;;5015796;28;20045;-75
2020/12/23 10:48:26;;;;;;;3.55;3.25;;;13.80;95.00;;;;;;5018206;28;20462;-75
2020/12/23 10:50:53;;;;;;;4.55;3.50;;;13.80;95.00;;;;;;5034160;28;20308;-83
2020/12/23 10:53:18;;;;;;;3.95;3.55;;;13.80;94.90;;;;;;5017562;28;20037;-72
2020/12/23 10:55:44;;;;;;;4.88;3.50;;;13.80;94.90;;;;;;5017163;28;20133;-70
2020/12/23 10:58:09;;;;;;;4.35;3.30;;;13.90;94.90;;;;;;5031803;28;20028;-74
2020/12/23 11:00:35;;;;;;;3.70;3.20;;;13.90;94.80;;;;;;5034195;28;20030;-79
2020/12/23 11:03:02;;;;;;;5.28;3.20;;;13.90;94.80;;;;;;5017088;28;20029;-76
2020/12/23 11:05:28;;;;;;;3.50;3.20;;;13.90;94.80;;;;;;5034518;28;20022;-67
2020/12/23 11:07:53;;;;;;;4.07;3.17;;;13.90;94.80;;;;;;5033527;28;20017;-71
2020/12/23 11:10:19;;;;;;;5.97;3.03;;;13.80;94.80;;;;;;5032206;28;20079;-67
2020/12/23 11:12:46;;;;;;;4.07;3.25;;;13.80;94.80;;;;;;5005603;28;20060;-68
2020/12/23 11:15:12;;;;;;;7.90;3.33;;;13.80;94.80;;;;;;5013667;28;20036;-68
2020/12/23 11:17:38;;;;;;;6.97;3.50;;;13.80;94.80;;;;;;5025716;28;20017;-74
2020/12/23 11:20:04;;;;;;;3.88;2.72;;;13.70;94.80;;;;;;5011256;28;20397;-74
2020/12/23 11:22:29;;;;;;;3.38;2.97;;;13.70;94.80;;;;;;5029173;28;20021;-76
2020/12/23 11:24:56;;;;;;;6.45;3.40;;;13.70;94.90;;;;;;5034830;28;20029;-75
2020/12/23 11:27:22;;;;;;;8.25;4.35;;;13.70;94.90;;;;;;5033586;28;20051;-75
2020/12/23 11:29:48;;;;;;;5.70;3.08;;;13.60;95.00;;;;;;5015040;28;20032;-75
2020/12/23 11:32:13;;;;;;;4.93;3.50;;;13.60;95.00;;;;;;5054128;28;20031;-75
2020/12/23 11:34:40;;;;;;;3.70;3.40;;;13.60;95.00;;;;;;5043279;28;20029;-74
2020/12/23 11:37:06;;;;;;;5.97;3.60;;;13.70;95.00;;;;;;5029994;28;20026;-75
2020/12/23 11:39:32;;;;;;;3.65;2.75;;;13.60;95.00;;;;;;5033667;28;20033;-75
2020/12/23 11:42:02;;;;;;;4.50;3.80;;;13.70;95.10;;;;;;5016382;28;20049;-75
2020/12/23 11:44:28;;;;;;;4.70;3.78;;;13.70;95.00;;;;;;5016823;28;20033;-75
2020/12/23 11:46:54;;;;;;;4.38;3.70;;;13.70;95.00;;;;;;5033427;28;20041;-78
2020/12/23 11:49:20;;;;;;;4.28;3.30;;;13.70;95.00;;;;;;5016484;28;20029;-78
2020/12/23 11:51:48;;;;;;;4.38;3.58;;;13.70;95.00;;;;;;5016566;28;20466;-78
2020/12/23 11:54:13;;;;;;;4.13;3.53;;;13.60;95.00;;;;;;5015766;28;20478;-72
2020/12/23 11:56:39;;;;;;;4.10;3.40;;;13.70;95.10;;;;;;5033877;28;20052;-73
2020/12/23 11:59:05;;;;;;;4.10;3.30;;;13.70;95.10;;;;;;5016103;28;20037;-74
2020/12/23 12:01:30;;;;;;;4.72;4.28;;;13.60;95.10;;;;;;5015883;28;20021;-73
2020/12/23 12:03:56;;;;;;;4.88;4.38;;;13.60;95.10;;;;;;5033844;28;20087;-73
2020/12/23 12:06:22;;;;;;;3.97;3.42;;;13.60;95.10;;;;;;5016344;28;20052;-74
2020/12/23 12:08:49;;;;;;;3.70;3.40;;;13.60;95.10;;;;;;5033034;28;20021;-75
2020/12/23 12:11:16;;;;;;;3.00;2.70;;;13.50;95.20;;;;;;5033755;28;20026;-75
2020/12/23 12:13:42;;;;;;;4.25;3.40;;;13.50;95.20;;;;;;5008637;28;20029;-74
2020/12/23 12:16:08;;;;;;;7.28;3.78;;;13.50;95.30;;;;;;5032647;28;20390;-75
2020/12/23 12:18:33;;;;;;;5.07;3.53;;;13.50;95.20;;;;;;5015474;28;20029;-89
2020/12/23 12:21:00;;;;;;;5.07;4.57;;;13.50;95.20;;;;;;5032703;28;20029;-72
2020/12/23 12:23:25;;;;;;;4.75;4.13;;;13.50;95.30;;;;;;5033117;28;20100;-73
2020/12/23 12:25:51;;;;;;;5.25;4.15;;;13.50;95.30;;;;;;5033090;28;20091;-72
2020/12/23 12:28:16;;;;;;;4.72;3.58;;;13.60;95.20;;;;;;5006797;28;20047;-72
2020/12/23 12:30:42;;;;;;;4.00;3.05;;;13.60;95.20;;;;;;5001719;28;20133;-73
2020/12/23 12:33:08;;;;;;;3.47;3.15;;;13.60;95.20;;;;;;5002378;28;20458;-72
2020/12/23 12:35:33;;;;;;;3.30;2.80;;;13.70;95.40;;;;;;5014867;28;20025;-72